Time;durP1;ratioP1;P1;durP2;ratioP2;P2;SDS_P1;SDS_P2;PMS_P1;PMS_P2;Temp;Humidity;BMP_temperature;BMP_pressure;BME280_temperature;BME280_humidity;BME280_pressure;Samples;Min_cycle;Max_cycle;Signal;HPM_P1;HPM_P2
2023/09/24 00:02:16;;;;;;;;;;;;;;;11.41;100.00;102177.41;4959676;28;19965;-90
2023/09/24 00:05:01;;;;;;;;;;;;;;;11.38;100.00;102182.78;4985995;28;19936;-90
2023/09/24 00:07:48;;;;;;;;;;;;;;;11.37;100.00;102181.06;4963456;28;20459;-90
2023/09/24 00:10:34;;;;;;;;;;;;;;;11.32;100.00;102186.47;4974871;28;20199;-88
2023/09/24 00:13:21;;;;;;;;;;;;;;;11.30;100.00;102187.44;4970995;28;20343;-87
2023/09/24 00:16:07;;;;;;;;;;;;;;;11.26;100.00;102179.56;4957742;28;19937;-90
2023/09/24 00:18:52;;;;;;;;;;;;;;;11.24;100.00;102180.53;4969269;28;19922;-92
2023/09/24 00:21:38;;;;;;;;;;;;;;;11.21;100.00;102185.91;4971496;28;19935;-90
2023/09/24 00:24:24;;;;;;;;;;;;;;;11.19;100.00;102183.31;4983708;28;20243;-88
2023/09/24 00:27:10;;;;;;;;;;;;;;;11.17;100.00;102185.09;4983765;28;19934;-90
2023/09/24 00:29:55;;;;;;;;;;;;;;;11.14;100.00;102182.56;4984973;28;19933;-91
2023/09/24 00:32:41;;;;;;;;;;;;;;;11.12;100.00;102184.38;4984586;28;19925;-91
2023/09/24 00:35:27;;;;;;;;;;;;;;;11.09;100.00;102187.09;4973969;28;20017;-90
2023/09/24 00:38:17;;;;;;;;;;;;;;;11.08;100.00;102191.53;4963474;28;19930;-89
2023/09/24 00:41:03;;;;;;;;;;;;;;;11.08;100.00;102193.31;4959033;28;20364;-90
2023/09/24 00:43:49;;;;;;;;;;;;;;;11.07;100.00;102195.06;4972397;28;19930;-90
2023/09/24 00:46:35;;;;;;;;;;;;;;;11.07;100.00;102197.72;4978146;28;20475;-91
2023/09/24 00:49:21;;;;;;;;;;;;;;;11.06;100.00;102197.78;4964551;28;19929;-91
2023/09/24 00:52:07;;;;;;;;;;;;;;;11.04;100.00;102195.16;4959687;28;20369;-89
2023/09/24 00:54:53;;;;;;;;;;;;;;;11.01;100.00;102195.25;4968972;28;19929;-90
2023/09/24 00:57:39;;;;;;;;;;;;;;;10.98;100.00;102195.31;4967912;28;20426;-91
2023/09/24 01:00:30;;;;;;;;;;;;;;;10.96;100.00;102192.72;4963583;28;19940;-91
2023/09/24 01:03:16;;;;;;;;;;;;;;;10.94;100.00;102199.84;4977765;28;19930;-91
2023/09/24 01:06:01;;;;;;;;;;;;;;;10.94;100.00;102201.59;4976172;28;20687;-91
2023/09/24 01:08:47;;;;;;;;;;;;;;;10.93;100.00;102195.44;4958995;28;19936;-91
2023/09/24 01:11:33;;;;;;;;;;;;;;;10.91;100.00;102202.56;4971451;28;19968;-92
2023/09/24 01:14:19;;;;;;;;;;;;;;;10.89;100.00;102195.56;4977402;28;19930;-92
2023/09/24 01:17:05;;;;;;;;;;;;;;;10.85;100.00;102197.44;4962616;28;20454;-91
2023/09/24 01:19:53;;;;;;;;;;;;;;;10.83;100.00;102199.22;4967867;28;20949;-90
2023/09/24 01:22:40;;;;;;;;;;;;;;;10.83;100.00;102196.56;4969305;28;20439;-90
2023/09/24 01:25:25;;;;;;;;;;;;;;;10.82;100.00;102195.72;4985049;28;20604;-91
2023/09/24 01:28:11;;;;;;;;;;;;;;;10.83;100.00;102196.56;4983461;28;19926;-91
2023/09/24 01:30:58;;;;;;;;;;;;;;;10.82;100.00;102193.06;4970115;28;20396;-90
2023/09/24 01:33:44;;;;;;;;;;;;;;;10.82;100.00;102206.31;4985557;28;19926;-91
2023/09/24 01:36:30;;;;;;;;;;;;;;;10.81;100.00;102204.59;4973966;28;20292;-91
2023/09/24 01:39:17;;;;;;;;;;;;;;;10.80;100.00;102199.31;4972908;28;21017;-91
2023/09/24 01:42:02;;;;;;;;;;;;;;;10.82;100.00;102211.63;4964969;28;20569;-91
2023/09/24 01:44:48;;;;;;;;;;;;;;;10.83;100.00;102199.22;4958786;28;19925;-91
2023/09/24 01:47:34;;;;;;;;;;;;;;;10.84;100.00;102203.66;4984796;28;20487;-91
2023/09/24 01:50:20;;;;;;;;;;;;;;;10.86;100.00;102197.38;4984883;28;19996;-92
2023/09/24 01:53:09;;;;;;;;;;;;;;;10.90;100.00;102194.66;4971132;28;20464;-93
2023/09/24 01:55:55;;;;;;;;;;;;;;;10.92;100.00;102196.38;4964564;28;19984;-91
2023/09/24 01:58:42;;;;;;;;;;;;;;;10.97;100.00;102199.78;4987567;28;19936;-93
2023/09/24 02:01:28;;;;;;;;;;;;;;;11.00;100.00;102202.34;4984615;28;19930;-89
2023/09/24 02:04:14;;;;;;;;;;;;;;;11.04;100.00;102199.59;4972044;28;19934;-89
2023/09/24 02:07:00;;;;;;;;;;;;;;;11.06;100.00;102193.34;4958261;28;19941;-93
2023/09/24 02:09:46;;;;;;;;;;;;;;;11.11;100.00;102193.25;4976882;28;19949;-91
2023/09/24 02:12:34;;;;;;;;;;;;;;;11.15;100.00;102197.53;4960456;28;20024;-92
2023/09/24 02:15:20;;;;;;;;;;;;;;;11.19;100.00;102199.22;4983622;28;20013;-90
2023/09/24 02:18:05;;;;;;;;;;;;;;;11.24;100.00;102197.28;4967942;28;19945;-90
2023/09/24 02:20:52;;;;;;;;;;;;;;;11.29;100.00;102194.53;4973347;28;19940;-91
2023/09/24 02:23:37;;;;;;;;;;;;;;;11.33;100.00;102190.03;4973417;28;19977;-89
2023/09/24 02:26:23;;;;;;;;;;;;;;;11.37;100.00;102187.25;4987271;28;20297;-92
2023/09/24 02:29:12;;;;;;;;;;;;;;;11.40;100.00;102188.94;4967744;28;19929;-91
2023/09/24 02:32:00;;;;;;;;;;;;;;;11.42;100.00;102187.09;4970897;28;19925;-92
2023/09/24 02:34:47;;;;;;;;;;;;;;;11.43;100.00;102191.50;4964522;28;19985;-90
2023/09/24 02:37:32;;;;;;;;;;;;;;;11.46;100.00;102198.50;4960789;28;19937;-90
2023/09/24 02:40:23;;;;;;;;;;;;;;;11.46;100.00;102199.38;4961582;28;20016;-90
2023/09/24 02:43:12;;;;;;;;;;;;;;;11.47;100.00;102198.47;4955439;28;19930;-91
2023/09/24 02:45:58;;;;;;;;;;;;;;;11.48;100.00;102197.53;4958313;28;19937;-91
2023/09/24 02:48:44;;;;;;;;;;;;;;;11.49;100.00;102193.13;4975968;28;19996;-89
2023/09/24 02:51:30;;;;;;;;;;;;;;;11.47;100.00;102198.47;4983311;28;19929;-88
2023/09/24 02:54:16;;;;;;;;;;;;;;;11.45;100.00;102199.41;4982806;28;20012;-90
2023/09/24 02:57:03;;;;;;;;;;;;;;;11.43;100.00;102202.09;4983649;28;20036;-89
2023/09/24 02:59:49;;;;;;;;;;;;;;;11.39;100.00;102206.63;4983072;28;20426;-90
2023/09/24 03:02:34;;;;;;;;;;;;;;;11.36;100.00;102205.84;4975248;28;20383;-90
2023/09/24 03:05:20;;;;;;;;;;;;;;;11.32;100.00;102210.34;4985063;28;19941;-92
2023/09/24 03:08:09;;;;;;;;;;;;;;;11.27;100.00;102207.81;4982296;28;20274;-90
2023/09/24 03:10:55;;;;;;;;;;;;;;;11.24;100.00;102207.03;4975528;28;19936;-90
2023/09/24 03:13:40;;;;;;;;;;;;;;;11.19;100.00;102207.16;4974797;28;19941;-90
2023/09/24 03:16:28;;;;;;;;;;;;;;;11.14;100.00;102222.31;4968103;28;19934;-89
2023/09/24 03:19:13;;;;;;;;;;;;;;;11.09;100.00;102229.50;4979845;28;19961;-89
2023/09/24 03:21:59;;;;;;;;;;;;;;;11.04;100.00;102223.44;4972802;28;19934;-89
2023/09/24 03:24:47;;;;;;;;;;;;;;;10.98;100.00;102230.66;4970490;28;21698;-90
2023/09/24 03:27:33;;;;;;;;;;;;;;;10.94;100.00;102231.63;4988078;28;19930;-91
2023/09/24 03:30:19;;;;;;;;;;;;;;;10.91;100.00;102231.72;4987052;28;19935;-90
2023/09/24 03:33:04;;;;;;;;;;;;;;;10.86;100.00;102229.16;4960773;28;20127;-90
2023/09/24 03:35:50;;;;;;;;;;;;;;;10.83;100.00;102233.66;4961030;28;19933;-90
2023/09/24 03:38:36;;;;;;;;;;;;;;;10.80;100.00;102233.75;4973155;28;20398;-87
2023/09/24 03:41:23;;;;;;;;;;;;;;;10.77;100.00;102231.16;4976299;28;19933;-90
2023/09/24 03:44:09;;;;;;;;;;;;;;;10.73;100.00;102236.53;4971131;28;19937;-89
2023/09/24 03:46:54;;;;;;;;;;;;;;;10.71;100.00;102225.13;4970658;28;19925;-90
2023/09/24 03:49:42;;;;;;;;;;;;;;;10.69;100.00;102226.91;4959508;28;19930;-90
2023/09/24 03:52:27;;;;;;;;;;;;;;;10.69;100.00;102232.22;4972817;28;20384;-91
2023/09/24 03:55:15;;;;;;;;;;;;;;;10.70;100.00;102236.63;4985817;28;20436;-89
2023/09/24 03:58:01;;;;;;;;;;;;;;;10.72;100.00;102245.41;4965338;28;19929;-89
2023/09/24 04:00:47;;;;;;;;;;;;;;;10.73;100.00;102236.53;4972739;28;20593;-90
2023/09/24 04:03:33;;;;;;;;;;;;;;;10.77;100.00;102239.09;4971943;28;20024;-89
2023/09/24 04:06:18;;;;;;;;;;;;;;;10.78;100.00;102240.88;4986308;28;19952;-89
2023/09/24 04:09:04;;;;;;;;;;;;;;;10.81;100.00;102246.97;4968664;28;19932;-90
2023/09/24 04:11:50;;;;;;;;;;;;;;;10.82;100.00;102242.53;4960218;28;19961;-90
2023/09/24 04:14:36;;;;;;;;;;;;;;;10.84;100.00;102240.72;4973685;28;20049;-92
2023/09/24 04:17:22;;;;;;;;;;;;;;;10.86;100.00;102241.56;4978709;28;20304;-93
2023/09/24 04:20:08;;;;;;;;;;;;;;;10.86;100.00;102247.72;4970894;28;19930;-92
2023/09/24 04:22:53;;;;;;;;;;;;;;;10.89;100.00;102253.88;4967062;28;19957;-92
2023/09/24 04:25:42;;;;;;;;;;;;;;;10.90;100.00;102253.81;4972101;28;20041;-92
2023/09/24 04:28:28;;;;;;;;;;;;;;;10.91;100.00;102252.91;4986456;28;19926;-91
2023/09/24 04:31:13;;;;;;;;;;;;;;;10.93;100.00;102247.56;4959950;28;20016;-89
2023/09/24 04:33:59;;;;;;;;;;;;;;;10.93;100.00;102256.41;4966970;28;20126;-91
2023/09/24 04:36:44;;;;;;;;;;;;;;;10.94;100.00;102266.06;4985683;28;19929;-90
2023/09/24 04:39:30;;;;;;;;;;;;;;;10.94;100.00;102257.25;4972555;28;19930;-92
2023/09/24 04:42:16;;;;;;;;;;;;;;;10.93;100.00;102263.47;4974593;28;21485;-91
2023/09/24 04:45:01;;;;;;;;;;;;;;;10.91;100.00;102263.53;4986252;28;19930;-90
2023/09/24 04:47:49;;;;;;;;;;;;;;;10.89;100.00;102265.31;4969304;28;20413;-89
2023/09/24 04:50:35;;;;;;;;;;;;;;;10.86;100.00;102263.59;4970511;28;19926;-90
2023/09/24 04:53:20;;;;;;;;;;;;;;;10.84;100.00;102269.88;4986027;28;19934;-90
2023/09/24 04:56:07;;;;;;;;;;;;;;;10.80;100.00;102278.78;4985285;28;21633;-90
2023/09/24 04:58:52;;;;;;;;;;;;;;;10.76;100.00;102282.41;4971435;28;19933;-90
2023/09/24 05:01:38;;;;;;;;;;;;;;;10.71;100.00;102283.41;4985036;28;20502;-89
2023/09/24 05:04:23;;;;;;;;;;;;;;;10.66;100.00;102281.75;4985481;28;19930;-90
2023/09/24 05:07:09;;;;;;;;;;;;;;;10.62;100.00;102283.59;4970220;28;19925;-92
2023/09/24 05:09:55;;;;;;;;;;;;;;;10.55;100.00;102285.53;4985873;28;19926;-91
2023/09/24 05:12:42;;;;;;;;;;;;;;;10.52;100.00;102295.31;4987443;28;20407;-91
2023/09/24 05:15:27;;;;;;;;;;;;;;;10.47;100.00;102295.41;4972757;28;19937;-90
2023/09/24 05:18:13;;;;;;;;;;;;;;;10.42;100.00;102286.66;4971928;28;20452;-91
2023/09/24 05:20:59;;;;;;;;;;;;;;;10.38;100.00;102285.84;4975542;28;20362;-91
2023/09/24 05:23:45;;;;;;;;;;;;;;;10.33;100.00;102295.66;4972416;28;19940;-91
2023/09/24 05:26:30;;;;;;;;;;;;;;;10.28;100.00;102295.78;4984117;28;20325;-90
2023/09/24 05:29:16;;;;;;;;;;;;;;;10.26;100.00;102307.28;4984222;28;19930;-90
2023/09/24 05:32:02;;;;;;;;;;;;;;;10.22;100.00;102306.50;4984398;28;19934;-90
2023/09/24 05:34:52;;;;;;;;;;;;;;;10.20;100.00;102310.94;4985104;28;20228;-90
2023/09/24 05:37:39;;;;;;;;;;;;;;;10.17;100.00;102309.22;4984764;28;19929;-90
2023/09/24 05:40:24;;;;;;;;;;;;;;;10.15;100.00;102316.31;4968952;28;20293;-92
2023/09/24 05:43:10;;;;;;;;;;;;;;;10.13;100.00;102318.13;4972232;28;20392;-91
2023/09/24 05:45:56;;;;;;;;;;;;;;;10.10;100.00;102315.56;4983505;28;19930;-91
2023/09/24 05:48:41;;;;;;;;;;;;;;;10.09;100.00;102321.75;4968524;28;19940;-91
2023/09/24 05:51:27;;;;;;;;;;;;;;;10.06;100.00;102316.50;4983816;28;20455;-93
2023/09/24 05:54:13;;;;;;;;;;;;;;;10.06;100.00;102324.44;4968904;28;20444;-91
2023/09/24 05:56:58;;;;;;;;;;;;;;;10.05;100.00;102326.25;4977086;28;20273;-91
2023/09/24 05:59:44;;;;;;;;;;;;;;;10.04;100.00;102323.63;4985312;28;20031;-90
2023/09/24 06:02:30;;;;;;;;;;;;;;;10.04;100.00;102331.56;4986541;28;19937;-92
2023/09/24 06:05:18;;;;;;;;;;;;;;;10.04;100.00;102331.56;4970935;28;20308;-91
2023/09/24 06:08:05;;;;;;;;;;;;;;;10.04;100.00;102331.56;4987089;28;19933;-89
2023/09/24 06:10:52;;;;;;;;;;;;;;;10.06;100.00;102340.31;4976940;28;20339;-90
2023/09/24 06:13:38;;;;;;;;;;;;;;;10.06;100.00;102337.69;4985174;28;21453;-91
2023/09/24 06:16:23;;;;;;;;;;;;;;;10.07;100.00;102343.84;4986234;28;19941;-91
2023/09/24 06:19:10;;;;;;;;;;;;;;;10.10;100.00;102351.72;4983408;28;20320;-91
2023/09/24 06:21:55;;;;;;;;;;;;;;;10.13;100.00;102349.03;4971155;28;20455;-92
2023/09/24 06:24:41;;;;;;;;;;;;;;;10.14;100.00;102350.78;4982120;28;20269;-92
2023/09/24 06:27:27;;;;;;;;;;;;;;;10.19;100.00;102351.56;4971584;28;19929;-91
2023/09/24 06:30:12;;;;;;;;;;;;;;;10.22;100.00;102347.94;4985233;28;19929;-91
2023/09/24 06:32:58;;;;;;;;;;;;;;;10.25;100.00;102355.84;4984809;28;21986;-89
2023/09/24 06:35:44;;;;;;;;;;;;;;;10.26;100.00;102353.19;4982838;28;20003;-89
2023/09/24 06:38:29;;;;;;;;;;;;;;;10.29;100.00;102352.22;4981903;28;19930;-91
2023/09/24 06:41:15;;;;;;;;;;;;;;;10.31;100.00;102355.72;4971824;28;20321;-89
2023/09/24 06:44:01;;;;;;;;;;;;;;;10.33;100.00;102364.50;4969973;28;19926;-90
2023/09/24 06:46:46;;;;;;;;;;;;;;;10.37;100.00;102363.53;4981953;28;20377;-89
2023/09/24 06:49:32;;;;;;;;;;;;;;;10.39;100.00;102369.66;4983876;28;19937;-89
2023/09/24 06:52:17;;;;;;;;;;;;;;;10.43;100.00;102368.75;4983103;28;20324;-89
2023/09/24 06:55:04;;;;;;;;;;;;;;;10.47;100.00;102374.84;4971688;28;19933;-90
2023/09/24 06:57:50;;;;;;;;;;;;;;;10.51;100.00;102380.97;4990068;28;19925;-92
2023/09/24 07:00:35;;;;;;;;;;;;;;;10.54;100.00;102386.19;4971493;28;21792;-93
2023/09/24 07:03:21;;;;;;;;;;;;;;;10.58;100.00;102390.53;4987130;28;20385;-91
2023/09/24 07:06:07;;;;;;;;;;;;;;;10.62;100.00;102389.53;4970610;28;19926;-91
2023/09/24 07:08:52;;;;;;;;;;;;;;;10.65;100.00;102394.78;4973795;28;19934;-92
2023/09/24 07:11:38;;;;;;;;;;;;;;;10.71;100.00;102396.41;4986207;28;20440;-91
2023/09/24 07:14:24;;;;;;;;;;;;;;;10.79;100.00;102396.25;4971393;28;19936;-90
2023/09/24 07:17:09;;;;;;;;;;;;;;;10.83;100.00;102393.50;4990341;28;19957;-92
2023/09/24 07:19:55;;;;;;;;;;;;;;;10.92;100.00;102396.84;4972304;28;20325;-91
2023/09/24 07:22:40;;;;;;;;;;;;;;;10.98;100.00;102402.91;4975337;28;20312;-88
2023/09/24 07:25:26;;;;;;;;;;;;;;;11.06;100.00;102391.25;4841813;28;4255545;-93
2023/09/24 07:28:12;;;;;;;;;;;;;;;11.14;100.00;102402.56;4988864;28;19933;-91
2023/09/24 07:30:58;;;;;;;;;;;;;;;11.23;100.00;102396.19;4987982;28;19929;-90
2023/09/24 07:33:44;;;;;;;;;;;;;;;11.33;100.00;102394.19;4988825;28;20071;-90
2023/09/24 07:36:36;;;;;;;;;;;;;;;11.43;100.00;102408.94;4980657;28;19952;-90
2023/09/24 07:39:21;;;;;;;;;;;;;;;11.54;100.00;102411.31;4979313;28;19964;-91
2023/09/24 07:42:09;;;;;;;;;;;;;;;11.65;100.00;102411.06;4972988;28;19935;-91
2023/09/24 07:44:55;;;;;;;;;;;;;;;11.78;100.00;102417.81;4990791;28;19930;-90
2023/09/24 07:47:41;;;;;;;;;;;;;;;11.87;100.00;102407.88;4976286;28;19933;-90
2023/09/24 07:50:27;;;;;;;;;;;;;;;11.94;100.00;102405.00;4972029;28;19973;-89
2023/09/24 07:53:13;;;;;;;;;;;;;;;11.99;100.00;102401.38;4967790;28;21889;-92
2023/09/24 07:56:02;;;;;;;;;;;;;;;12.04;100.00;102410.97;4978053;28;19969;-90
2023/09/24 07:58:48;;;;;;;;;;;;;;;12.12;100.00;102412.56;4966088;28;19925;-90
2023/09/24 08:01:34;;;;;;;;;;;;;;;12.21;100.00;102417.63;4973522;28;19934;-92
2023/09/24 08:04:19;;;;;;;;;;;;;;;12.31;100.00;102410.28;4990544;28;20554;-93
2023/09/24 08:07:05;;;;;;;;;;;;;;;12.41;100.00;102410.91;4974008;28;20462;-93
2023/09/24 08:09:51;;;;;;;;;;;;;;;12.50;100.00;102410.63;4989539;28;20518;-87
2023/09/24 08:12:37;;;;;;;;;;;;;;;12.59;100.00;102418.31;4986799;28;19930;-89
2023/09/24 08:15:23;;;;;;;;;;;;;;;12.69;100.00;102423.38;4986642;28;19968;-90
2023/09/24 08:18:09;;;;;;;;;;;;;;;12.78;100.00;102425.75;4990074;28;19933;-91
2023/09/24 08:20:54;;;;;;;;;;;;;;;12.88;100.00;102432.56;4987170;28;19983;-92
2023/09/24 08:23:40;;;;;;;;;;;;;;;12.97;100.00;102423.41;4987261;28;20030;-91
2023/09/24 08:26:26;;;;;;;;;;;;;;;13.07;100.00;102424.00;4988321;28;20282;-90
2023/09/24 08:29:11;;;;;;;;;;;;;;;13.17;100.00;102430.78;4988315;28;19941;-91
2023/09/24 08:31:57;;;;;;;;;;;;;;;13.30;100.00;102419.78;4975502;28;19929;-91
2023/09/24 08:34:43;;;;;;;;;;;;;;;13.44;100.00;102429.94;4974841;28;20372;-92
2023/09/24 08:37:29;;;;;;;;;;;;;;;13.57;100.00;102433.13;4988237;28;19930;-89
2023/09/24 08:40:17;;;;;;;;;;;;;;;13.70;100.00;102438.91;4986361;28;19944;-89
2023/09/24 08:43:04;;;;;;;;;;;;;;;13.81;100.00;102435.88;4985672;28;20095;-90
2023/09/24 08:45:50;;;;;;;;;;;;;;;13.89;100.00;102439.16;4969934;28;20027;-91
2023/09/24 08:48:37;;;;;;;;;;;;;;;13.98;100.00;102438.84;4969468;28;19952;-88
2023/09/24 08:51:22;;;;;;;;;;;;;;;14.02;100.00;102430.75;4963564;28;19933;-88
2023/09/24 08:54:08;;;;;;;;;;;;;;;14.06;100.00;102440.38;4985957;28;20325;-92
2023/09/24 08:56:53;;;;;;;;;;;;;;;14.10;100.00;102440.22;4959796;28;20381;-88
2023/09/24 08:59:42;;;;;;;;;;;;;;;14.14;100.00;102432.97;4970888;28;19925;-91
2023/09/24 09:02:28;;;;;;;;;;;;;;;14.18;100.00;102429.31;4972455;28;19988;-90
2023/09/24 09:05:25;;;;;;;;;;;;;;;14.24;100.00;102423.75;4986066;28;19933;-88
2023/09/24 09:08:11;;;;;;;;;;;;;;;14.31;100.00;102436.81;4972442;28;19929;-91
2023/09/24 09:10:57;;;;;;;;;;;;;;;14.36;100.00;102440.19;4985231;28;20464;-90
2023/09/24 09:13:43;;;;;;;;;;;;;;;14.40;100.00;102433.84;4983500;28;19930;-89
2023/09/24 09:16:28;;;;;;;;;;;;;;;14.41;100.00;102440.91;4957331;28;19956;-89
2023/09/24 09:19:14;;;;;;;;;;;;;;;14.42;100.00;102434.66;4986300;28;19934;-91
2023/09/24 09:22:15;;;;;;;;;;;;;;;14.49;100.00;102432.66;4972808;28;19929;-85
2023/09/24 09:25:04;;;;;;;;;;;;;;;14.52;100.00;102425.41;4968778;28;19934;-88
2023/09/24 09:27:50;;;;;;;;;;;;;;;14.52;100.00;102425.41;4983852;28;20377;-88
2023/09/24 09:30:36;;;;;;;;;;;;;;;14.60;100.00;102435.78;4985467;28;19934;-90
2023/09/24 09:33:25;;;;;;;;;;;;;;;14.67;100.00;102437.28;4982225;28;21549;-89
2023/09/24 09:36:24;;;;;;;;;;;;;;;14.75;100.00;102439.69;4968124;28;19937;-89
2023/09/24 09:39:10;;;;;;;;;;;;;;;14.83;100.00;102443.88;4982563;28;19944;-90
2023/09/24 09:41:55;;;;;;;;;;;;;;;14.86;100.00;102436.63;4974774;28;20367;-90
2023/09/24 09:44:41;;;;;;;;;;;;;;;14.90;100.00;102440.03;4983168;28;20013;-92
2023/09/24 09:47:28;;;;;;;;;;;;;;;14.94;100.00;102439.00;4970438;28;20022;-94
2023/09/24 09:50:13;;;;;;;;;;;;;;;15.00;100.00;102437.88;4962688;28;22060;-90
2023/09/24 09:52:59;;;;;;;;;;;;;;;15.04;100.00;102440.38;4970719;28;19938;-89
2023/09/24 09:55:46;;;;;;;;;;;;;;;15.11;100.00;102438.34;4960505;28;20682;-88
2023/09/24 09:58:36;;;;;;;;;;;;;;;15.16;100.00;102432.81;4964355;28;19961;-86
2023/09/24 10:01:24;;;;;;;;;;;;;;;15.23;100.00;102439.66;4983908;28;19934;-88
2023/09/24 10:04:10;;;;;;;;;;;;;;;15.27;100.00;102446.59;4970919;28;19929;-90
2023/09/24 10:06:56;;;;;;;;;;;;;;;15.28;100.00;102437.66;4975988;28;20363;-89
2023/09/24 10:09:41;;;;;;;;;;;;;;;15.32;100.00;102433.94;4961708;28;20476;-92
2023/09/24 10:12:34;;;;;;;;;;;;;;;15.36;100.00;102429.34;4968260;28;19933;-93
2023/09/24 10:15:27;;;;;;;;;;;;;;;15.40;100.00;102428.28;4975513;28;20279;-90
2023/09/24 10:18:12;;;;;;;;;;;;;;;15.48;100.00;102434.19;4965656;28;19929;-90
2023/09/24 10:20:59;;;;;;;;;;;;;;;15.54;100.00;102422.41;4975246;28;20234;-88
2023/09/24 10:23:45;;;;;;;;;;;;;;;15.56;100.00;102419.66;4966887;28;19968;-88
2023/09/24 10:26:49;;;;;;;;;;;;;;;15.65;100.00;102423.75;4961707;28;20355;-90
2023/09/24 10:29:44;;;;;;;;;;;;;;;15.68;100.00;102418.28;4979435;28;19929;-87
2023/09/24 10:32:41;;;;;;;;;;;;;;;15.74;100.00;102424.22;4988120;28;20044;-91
2023/09/24 10:35:26;;;;;;;;;;;;;;;15.80;100.00;102422.22;4988845;28;20285;-89
2023/09/24 10:38:14;;;;;;;;;;;;;;;15.80;100.00;102415.06;4972009;28;19960;-89
2023/09/24 10:41:04;;;;;;;;;;;;;;;15.84;100.00;102414.00;4959894;28;20127;-91
2023/09/24 10:44:28;;;;;;;;;;;;;;;15.91;100.00;102405.75;4987898;28;19952;-88
2023/09/24 10:47:30;;;;;;;;;;;;;;;15.93;100.00;102406.56;4911398;29;19937;-88
2023/09/24 10:50:16;;;;;;;;;;;;;;;15.99;100.00;102408.97;4890982;29;19930;-90
2023/09/24 10:53:02;;;;;;;;;;;;;;;16.03;100.00;102410.59;4986840;28;19926;-90
2023/09/24 10:55:48;;;;;;;;;;;;;;;16.12;100.00;102402.16;4972188;28;20040;-85
2023/09/24 10:58:33;;;;;;;;;;;;;;;16.21;100.00;102400.00;4987209;28;19951;-88
2023/09/24 11:01:28;;;;;;;;;;;;;;;16.26;100.00;102403.34;4976008;28;19930;-90
2023/09/24 11:04:23;;;;;;;;;;;;;;;16.33;100.00;102401.28;4986076;28;20020;-87
2023/09/24 11:07:12;;;;;;;;;;;;;;;16.40;100.00;102400.91;4987482;28;20136;-89
2023/09/24 11:09:57;;;;;;;;;;;;;;;16.48;100.00;102402.38;4969727;28;19926;-89
2023/09/24 11:12:47;;;;;;;;;;;;;;;16.54;100.00;102397.63;4987072;28;19961;-86
2023/09/24 11:15:34;;;;;;;;;;;;;;;16.60;100.00;102396.47;4970990;28;20387;-90
2023/09/24 11:18:20;;;;;;;;;;;;;;;16.69;100.00;102390.66;4974562;28;19953;-85
2023/09/24 11:21:06;;;;;;;;;;;;;;;16.79;100.00;102392.94;4986205;28;20023;-88
2023/09/24 11:23:51;;;;;;;;;;;;;;;16.85;100.00;102392.63;4986046;28;20024;-87
2023/09/24 11:26:37;;;;;;;;;;;;;;;16.88;100.00;102395.16;4987872;28;20373;-91
2023/09/24 11:29:23;;;;;;;;;;;;;;;16.92;100.00;102387.84;4986012;28;19934;-91
2023/09/24 11:32:09;;;;;;;;;;;;;;;16.99;100.00;102381.25;4973602;28;21457;-88
2023/09/24 11:35:18;;;;;;;;;;;;;;;17.05;100.00;102390.84;4964743;28;19934;-89
2023/09/24 11:38:04;;;;;;;;;;;;;;;17.01;100.00;102378.53;4970234;28;20072;-86
2023/09/24 11:40:49;;;;;;;;;;;;;;;16.95;100.00;102388.56;4986921;28;20222;-87
2023/09/24 11:43:36;;;;;;;;;;;;;;;16.94;100.00;102383.31;4985805;28;20300;-88
2023/09/24 11:46:21;;;;;;;;;;;;;;;16.90;100.00;102379.91;4971685;28;19929;-86
2023/09/24 11:49:08;;;;;;;;;;;;;;;16.89;100.00;102388.84;4970837;28;19934;-88
2023/09/24 11:51:54;;;;;;;;;;;;;;;16.88;100.00;102384.47;4969802;28;20154;-86
2023/09/24 11:54:40;;;;;;;;;;;;;;;16.90;100.00;102379.91;4985804;28;21936;-84
2023/09/24 11:57:25;;;;;;;;;;;;;;;16.89;100.00;102385.34;4986874;28;19930;-88
2023/09/24 12:00:12;;;;;;;;;;;;;;;16.87;100.00;102385.41;4971087;28;19929;-88
2023/09/24 12:02:59;;;;;;;;;;;;;;;16.84;100.00;102381.06;4982544;28;19929;-85
2023/09/24 12:05:45;;;;;;;;;;;;;;;16.81;100.00;102383.91;4960602;28;19984;-87
2023/09/24 12:08:31;;;;;;;;;;;;;;;16.82;100.00;102382.06;4959498;28;20428;-87
2023/09/24 12:11:16;;;;;;;;;;;;;;;16.82;100.00;102387.41;4969065;28;20716;-85
2023/09/24 12:14:02;;;;;;;;;;;;;;;16.83;100.00;102391.81;4973259;28;19969;-87
2023/09/24 12:16:48;;;;;;;;;;;;;;;16.87;100.00;102381.84;4985959;28;19940;-87
2023/09/24 12:19:33;;;;;;;;;;;;;;;16.89;100.00;102380.00;4983568;28;20288;-88
2023/09/24 12:22:20;;;;;;;;;;;;;;;16.94;100.00;102384.16;4985478;28;20327;-87
2023/09/24 12:25:06;;;;;;;;;;;;;;;17.00;100.00;102383.00;4972555;28;19963;-87
2023/09/24 12:27:52;;;;;;;;;;;;;;;17.09;100.00;102377.25;4984782;28;19925;-85
2023/09/24 12:30:38;;;;;;;;;;;;;;;17.18;100.00;102386.63;4972768;28;19984;-85
2023/09/24 12:33:23;;;;;;;;;;;;;;;17.27;100.00;102382.63;4963168;28;19929;-87
2023/09/24 12:36:09;;;;;;;;;;;;;;;17.38;100.00;102377.59;4976620;28;19932;-84
2023/09/24 12:38:55;;;;;;;;;;;;;;;17.45;100.00;102372.81;4983670;28;19934;-88
2023/09/24 12:41:40;;;;;;;;;;;;;;;17.50;100.00;102368.06;4973037;28;20716;-88
2023/09/24 12:44:26;;;;;;;;;;;;;;;17.59;100.00;102363.22;4967358;28;19926;-85
2023/09/24 12:47:11;;;;;;;;;;;;;;;17.63;100.00;102370.13;4985390;28;19937;-88
2023/09/24 12:49:57;;;;;;;;;;;;;;;17.70;100.00;102373.38;4985136;28;19929;-83
2023/09/24 12:52:46;;;;;;;;;;;;;;;17.70;100.00;102366.19;4968571;28;19925;-87
2023/09/24 12:55:32;;;;;;;;;;;;;;;17.69;100.00;102380.53;4970877;28;19929;-88
2023/09/24 12:58:17;;;;;;;;;;;;;;;17.66;100.00;102372.66;4970876;28;19930;-86
2023/09/24 13:01:03;;;;;;;;;;;;;;;17.61;100.00;102361.31;4963453;28;19934;-86
2023/09/24 13:03:49;;;;;;;;;;;;;;;17.57;100.00;102359.72;4968603;28;19934;-84
2023/09/24 13:06:34;;;;;;;;;;;;;;;17.54;100.00;102365.25;4962815;28;19936;-83
2023/09/24 13:09:20;;;;;;;;;;;;;;;17.55;100.00;102367.00;4985048;28;20262;-88
2023/09/24 13:12:06;;;;;;;;;;;;;;;17.53;100.00;102363.53;4962500;28;20008;-88
2023/09/24 13:14:51;;;;;;;;;;;;;;;17.57;100.00;102362.41;4971370;28;19929;-87
2023/09/24 13:17:37;;;;;;;;;;;;;;;17.56;100.00;102358.00;4957242;28;20020;-89
2023/09/24 13:20:23;;;;;;;;;;;;;;;17.53;100.00;102350.16;4967892;28;20003;-87
2023/09/24 13:23:12;;;;;;;;;;;;;;;17.51;100.00;102353.78;4962218;28;19941;-89
2023/09/24 13:25:57;;;;;;;;;;;;;;;17.48;100.00;102345.00;4983266;28;19925;-87
2023/09/24 13:28:43;;;;;;;;;;;;;;;17.51;100.00;102347.53;4968373;28;19926;-86
2023/09/24 13:31:29;;;;;;;;;;;;;;;17.49;100.00;102352.97;4967538;28;20035;-88
2023/09/24 13:34:14;;;;;;;;;;;;;;;17.48;100.00;102345.00;4984948;28;20479;-89
2023/09/24 13:37:00;;;;;;;;;;;;;;;17.47;100.00;102348.63;4967123;28;20437;-87
2023/09/24 13:39:46;;;;;;;;;;;;;;;17.45;100.00;102339.81;4982229;28;20651;-87
2023/09/24 13:42:34;;;;;;;;;;;;;;;17.46;100.00;102342.41;4982391;28;19926;-87
2023/09/24 13:45:20;;;;;;;;;;;;;;;17.43;100.00;102342.56;4982955;28;19936;-88
2023/09/24 13:48:06;;;;;;;;;;;;;;;17.42;100.00;102340.84;4982489;28;20998;-84
2023/09/24 13:50:52;;;;;;;;;;;;;;;17.43;100.00;102339.88;4975570;28;20056;-86
2023/09/24 13:53:38;;;;;;;;;;;;;;;17.40;100.00;102336.50;4983046;28;19929;-87
2023/09/24 13:56:24;;;;;;;;;;;;;;;17.39;100.00;102330.31;4972037;28;20048;-87
2023/09/24 13:59:10;;;;;;;;;;;;;;;17.39;100.00;102341.00;4970397;28;19977;-85
2023/09/24 14:02:03;;;;;;;;;;;;;;;17.38;100.00;102333.94;4974617;28;19940;-86
2023/09/24 14:04:49;;;;;;;;;;;;;;;17.41;100.00;102339.09;4961755;28;19977;-87